createdAt,value
2023-05-03T00:00:32.899Z,1.90
2023-05-03T00:01:31.992Z,1.90
2023-05-03T00:02:32.076Z,1.60
2023-05-03T00:03:31.971Z,1.50
2023-05-03T00:04:31.913Z,1.70
2023-05-03T00:05:31.957Z,1.80
2023-05-03T00:06:32.913Z,2.00
2023-05-03T00:07:31.904Z,1.80
2023-05-03T00:08:31.868Z,1.90
2023-05-03T00:09:31.855Z,1.90
2023-05-03T00:10:31.841Z,2.30
2023-05-03T00:11:31.877Z,1.60
2023-05-03T00:12:32.794Z,1.90
2023-05-03T00:13:31.805Z,2.20
2023-05-03T00:14:31.828Z,2.10
2023-05-03T00:15:31.789Z,2.00
2023-05-03T00:16:31.801Z,1.90
2023-05-03T00:17:31.819Z,2.40
2023-05-03T00:18:32.690Z,1.60
2023-05-03T00:19:32.088Z,1.70
2023-05-03T00:20:31.755Z,2.00
2023-05-03T00:21:31.724Z,2.60
2023-05-03T00:22:31.762Z,2.10
2023-05-03T00:23:31.880Z,1.80
2023-05-03T00:24:32.595Z,1.90
2023-05-03T00:25:31.659Z,2.60
2023-05-03T00:26:31.641Z,1.50
2023-05-03T00:27:31.732Z,2.20
2023-05-03T00:28:31.624Z,2.70
2023-05-03T00:29:32.555Z,2.90
2023-05-03T00:30:31.591Z,1.80
2023-05-03T00:31:31.620Z,2.10
2023-05-03T00:32:31.638Z,2.40
2023-05-03T00:33:31.580Z,1.90
2023-05-03T00:34:32.471Z,2.20
2023-05-03T00:35:31.511Z,2.10
2023-05-03T00:36:31.533Z,2.10
2023-05-03T00:37:31.546Z,2.10
2023-05-03T00:38:31.506Z,2.30
2023-05-03T00:39:31.472Z,2.00
2023-05-03T00:40:32.379Z,1.80
2023-05-03T00:41:31.439Z,2.10
2023-05-03T00:42:31.478Z,2.00
2023-05-03T00:43:31.426Z,2.10
2023-05-03T00:44:31.420Z,2.10
2023-05-03T00:45:31.410Z,2.10
2023-05-03T00:46:32.349Z,2.30
2023-05-03T00:47:31.489Z,2.00
2023-05-03T00:48:31.440Z,1.90
2023-05-03T00:49:31.351Z,2.00
2023-05-03T00:50:31.334Z,2.20
2023-05-03T00:51:31.352Z,2.00
2023-05-03T00:52:32.256Z,2.50
2023-05-03T00:53:31.311Z,2.30
2023-05-03T00:54:31.269Z,2.00
2023-05-03T00:55:31.327Z,2.50
2023-05-03T00:56:37.853Z,1.80
2023-05-03T00:57:32.756Z,3.10
2023-05-03T00:58:32.156Z,2.10
2023-05-03T00:59:31.223Z,2.70
2023-05-03T01:00:31.260Z,1.90
2023-05-03T01:01:31.298Z,1.70
2023-05-03T01:02:31.308Z,2.40
2023-05-03T01:03:32.204Z,2.20
2023-05-03T01:04:31.147Z,2.20
2023-05-03T01:05:31.140Z,1.80
2023-05-03T01:06:31.232Z,2.50
2023-05-03T01:07:31.133Z,2.10
2023-05-03T01:08:31.118Z,2.30
2023-05-03T01:09:32.025Z,2.00
2023-05-03T01:10:31.161Z,1.80
2023-05-03T01:11:31.072Z,2.20
2023-05-03T01:12:31.076Z,1.90
2023-05-03T01:13:31.080Z,2.30
2023-05-03T01:14:31.961Z,2.00
2023-05-03T01:15:31.000Z,1.90
2023-05-03T01:16:31.020Z,2.30
2023-05-03T01:17:31.022Z,2.80
2023-05-03T01:18:30.959Z,1.90
2023-05-03T01:19:30.982Z,2.20
2023-05-03T01:20:31.939Z,1.90
2023-05-03T01:21:30.934Z,2.10
2023-05-03T01:22:30.929Z,1.80
2023-05-03T01:23:30.924Z,2.50
2023-05-03T01:24:30.923Z,2.40
2023-05-03T01:25:31.812Z,2.70
2023-05-03T01:26:30.891Z,2.10
2023-05-03T01:27:30.844Z,2.00
2023-05-03T01:28:30.844Z,2.90
2023-05-03T01:29:30.829Z,2.30
2023-05-03T01:30:30.837Z,2.10
2023-05-03T01:31:31.846Z,1.80
2023-05-03T01:32:30.818Z,1.60
2023-05-03T01:33:30.791Z,1.60
2023-05-03T01:34:30.805Z,1.80
2023-05-03T01:35:30.741Z,2.20
2023-05-03T01:36:31.648Z,2.80
2023-05-03T01:37:30.825Z,2.30
2023-05-03T01:38:30.753Z,2.10
2023-05-03T01:39:30.702Z,1.90
2023-05-03T01:40:30.703Z,2.10
2023-05-03T01:41:30.742Z,1.80
2023-05-03T01:42:31.586Z,2.10
2023-05-03T01:43:30.698Z,2.00
2023-05-03T01:44:30.681Z,2.50
2023-05-03T01:45:30.714Z,2.50
2023-05-03T01:46:30.611Z,1.40
2023-05-03T01:47:31.539Z,1.90
2023-05-03T01:48:30.648Z,1.90
2023-05-03T01:49:30.584Z,2.20
2023-05-03T01:50:30.594Z,2.20
2023-05-03T01:51:30.576Z,1.80
2023-05-03T01:52:30.542Z,2.20
2023-05-03T01:53:31.503Z,2.20
2023-05-03T01:54:30.511Z,1.80
2023-05-03T01:55:30.538Z,1.90
2023-05-03T01:56:30.506Z,1.60
2023-05-03T01:57:30.492Z,2.00
2023-05-03T01:58:30.472Z,2.10
2023-05-03T01:59:31.388Z,1.80
2023-05-03T02:00:30.442Z,2.10
2023-05-03T02:01:30.486Z,1.90
2023-05-03T02:02:30.415Z,1.80
2023-05-03T02:03:30.376Z,1.50
2023-05-03T02:04:30.504Z,2.00
2023-05-03T02:05:31.329Z,2.20
2023-05-03T02:06:30.454Z,1.50
2023-05-03T02:07:30.337Z,1.40
2023-05-03T02:08:30.313Z,1.90
2023-05-03T02:09:30.347Z,1.80
2023-05-03T02:10:31.245Z,2.00
2023-05-03T02:11:30.320Z,1.60
2023-05-03T02:12:30.283Z,1.90
2023-05-03T02:13:30.250Z,2.10
2023-05-03T02:14:30.261Z,1.80
2023-05-03T02:15:31.165Z,2.20
2023-05-03T02:16:30.328Z,1.90
2023-05-03T02:17:30.220Z,1.50
2023-05-03T02:18:30.190Z,1.90
2023-05-03T02:19:30.194Z,1.70
2023-05-03T02:20:31.122Z,1.70
2023-05-03T02:21:30.193Z,1.60
2023-05-03T02:22:30.165Z,1.90
2023-05-03T02:23:30.169Z,1.90
2023-05-03T02:24:30.119Z,1.80
2023-05-03T02:25:31.047Z,2.00
2023-05-03T02:26:30.118Z,1.60
2023-05-03T02:27:30.108Z,2.60
2023-05-03T02:28:30.112Z,1.80
2023-05-03T02:29:30.094Z,1.70
2023-05-03T02:30:30.961Z,1.90
2023-05-03T02:31:30.085Z,2.00
2023-05-03T02:32:30.091Z,1.50
2023-05-03T02:33:30.058Z,1.60
2023-05-03T02:34:30.015Z,2.20
2023-05-03T02:35:30.010Z,2.10
2023-05-03T02:36:30.892Z,1.40
2023-05-03T02:37:29.969Z,1.30
2023-05-03T02:38:30.017Z,1.90
2023-05-03T02:39:29.912Z,2.20
2023-05-03T02:40:30.048Z,2.00
2023-05-03T02:41:29.923Z,1.40
2023-05-03T02:42:30.821Z,1.50
2023-05-03T02:43:29.923Z,1.90
2023-05-03T02:44:31.316Z,1.60
2023-05-03T02:45:29.857Z,1.80
2023-05-03T02:46:29.858Z,1.90
2023-05-03T02:47:29.904Z,1.90
2023-05-03T02:48:30.762Z,1.90
2023-05-03T02:49:29.808Z,2.00
2023-05-03T02:50:29.800Z,1.80
2023-05-03T02:51:29.797Z,1.90
2023-05-03T02:52:29.786Z,2.10
2023-05-03T02:53:30.676Z,1.80
2023-05-03T02:54:29.716Z,1.80
2023-05-03T02:55:29.728Z,1.80
2023-05-03T02:56:29.702Z,1.70
2023-05-03T02:57:29.710Z,1.50
2023-05-03T02:58:29.708Z,1.90
2023-05-03T02:59:30.599Z,1.90
2023-05-03T03:00:29.664Z,1.40
2023-05-03T03:01:29.997Z,1.50
2023-05-03T03:02:29.756Z,1.90
2023-05-03T03:03:29.776Z,1.50
2023-05-03T03:04:30.543Z,2.00
2023-05-03T03:05:29.622Z,1.70
2023-05-03T03:06:29.643Z,1.80
2023-05-03T03:07:29.612Z,1.50
2023-05-03T03:08:29.581Z,2.00
2023-05-03T03:09:30.463Z,2.30
2023-05-03T03:10:29.572Z,2.10
2023-05-03T03:11:29.517Z,1.80
2023-05-03T03:12:29.492Z,1.80
2023-05-03T03:13:29.521Z,2.00
2023-05-03T03:14:30.391Z,2.20
2023-05-03T03:15:29.452Z,1.80
2023-05-03T03:16:29.525Z,2.10
2023-05-03T03:17:29.450Z,1.60
2023-05-03T03:18:29.443Z,1.80
2023-05-03T03:19:30.416Z,1.90
2023-05-03T03:20:29.443Z,2.10
2023-05-03T03:21:29.386Z,2.00
2023-05-03T03:22:29.355Z,1.50
2023-05-03T03:23:29.331Z,1.80
2023-05-03T03:24:30.296Z,1.60
2023-05-03T03:25:29.392Z,2.20
2023-05-03T03:26:29.336Z,2.00
2023-05-03T03:27:29.294Z,1.60
2023-05-03T03:28:29.289Z,2.10
2023-05-03T03:29:29.251Z,1.80
2023-05-03T03:30:30.202Z,1.50
2023-05-03T03:31:29.302Z,1.70
2023-05-03T03:32:29.241Z,1.90
2023-05-03T03:33:29.229Z,1.70
2023-05-03T03:34:29.700Z,1.40
2023-05-03T03:35:30.163Z,1.50
2023-05-03T03:36:29.207Z,1.70
2023-05-03T03:37:29.187Z,2.10
2023-05-03T03:38:29.161Z,2.00
2023-05-03T03:39:29.136Z,1.70
2023-05-03T03:40:29.113Z,1.90
2023-05-03T03:41:30.081Z,2.00
2023-05-03T03:42:29.114Z,1.80
2023-05-03T03:43:29.098Z,1.90
2023-05-03T03:44:29.071Z,3.20
2023-05-03T03:45:29.039Z,1.80
2023-05-03T03:46:29.108Z,2.00
2023-05-03T03:47:30.002Z,2.50
2023-05-03T03:48:29.246Z,2.00
2023-05-03T03:49:29.016Z,1.40
2023-05-03T03:50:29.021Z,2.00
2023-05-03T03:51:29.043Z,2.30
2023-05-03T03:52:29.920Z,1.60
2023-05-03T03:53:28.957Z,1.70
2023-05-03T03:54:28.943Z,2.00
2023-05-03T03:55:28.931Z,1.90
2023-05-03T03:56:28.939Z,2.00
2023-05-03T03:57:28.931Z,2.00
2023-05-03T03:58:29.811Z,2.40
2023-05-03T03:59:28.854Z,1.70
2023-05-03T04:00:28.895Z,2.40
2023-05-03T04:01:28.849Z,1.50
2023-05-03T04:02:28.934Z,2.20
2023-05-03T04:03:29.781Z,2.00
2023-05-03T04:04:29.006Z,2.00
2023-05-03T04:05:28.784Z,1.80
2023-05-03T04:06:28.826Z,1.80
2023-05-03T04:07:28.800Z,2.10
2023-05-03T04:08:29.674Z,2.20
2023-05-03T04:09:28.805Z,2.30
2023-05-03T04:10:28.740Z,1.90
2023-05-03T04:11:28.754Z,2.40
2023-05-03T04:12:28.708Z,2.40
2023-05-03T04:13:28.683Z,2.40
2023-05-03T04:14:29.644Z,2.00
2023-05-03T04:15:28.650Z,2.30
2023-05-03T04:16:28.709Z,2.00
2023-05-03T04:17:28.630Z,1.70
2023-05-03T04:18:28.636Z,2.30
2023-05-03T04:19:29.543Z,1.80
2023-05-03T04:20:28.740Z,2.20
2023-05-03T04:21:28.626Z,2.00
2023-05-03T04:22:28.559Z,2.50
2023-05-03T04:23:28.560Z,2.10
2023-05-03T04:24:29.508Z,2.10
2023-05-03T04:25:28.578Z,2.00
2023-05-03T04:26:32.192Z,1.80
2023-05-03T04:27:28.494Z,2.00
2023-05-03T04:28:28.507Z,1.90
2023-05-03T04:29:29.458Z,2.00
2023-05-03T04:30:28.442Z,2.20
2023-05-03T04:31:28.635Z,2.00
2023-05-03T04:32:28.469Z,2.20
2023-05-03T04:33:28.436Z,2.50
2023-05-03T04:34:29.336Z,2.00
2023-05-03T04:35:28.381Z,2.00
2023-05-03T04:36:28.388Z,1.80
2023-05-03T04:37:28.372Z,2.20
2023-05-03T04:38:28.358Z,2.00
2023-05-03T04:39:28.333Z,2.00
2023-05-03T04:40:29.272Z,2.10
2023-05-03T04:41:28.338Z,1.90
2023-05-03T04:42:28.315Z,1.90
2023-05-03T04:43:28.294Z,1.90
2023-05-03T04:44:28.269Z,2.20
2023-05-03T04:45:28.254Z,2.90
2023-05-03T04:46:29.275Z,2.30
2023-05-03T04:47:28.261Z,1.90
2023-05-03T04:48:28.292Z,1.70
2023-05-03T04:49:28.255Z,1.60
2023-05-03T04:50:28.183Z,1.60
2023-05-03T04:51:28.200Z,2.20
2023-05-03T04:52:29.092Z,1.80
2023-05-03T04:53:28.163Z,1.90
2023-05-03T04:54:28.192Z,1.90
2023-05-03T04:55:28.173Z,2.50
2023-05-03T04:56:28.174Z,1.70
2023-05-03T04:57:28.104Z,1.70
2023-05-03T04:58:29.020Z,2.20
2023-05-03T04:59:28.088Z,1.90
2023-05-03T05:00:28.089Z,2.10
2023-05-03T05:01:28.165Z,1.60
2023-05-03T05:02:28.110Z,1.80
2023-05-03T05:03:28.140Z,2.20
2023-05-03T05:04:28.941Z,1.80
2023-05-03T05:05:28.006Z,1.80
2023-05-03T05:06:28.062Z,1.60
2023-05-03T05:07:28.083Z,2.60
2023-05-03T05:08:27.964Z,1.90
2023-05-03T05:09:28.907Z,1.90
2023-05-03T05:10:28.019Z,2.20
2023-05-03T05:11:27.920Z,1.60
2023-05-03T05:12:27.886Z,2.60
2023-05-03T05:13:27.894Z,1.80
2023-05-03T05:14:28.823Z,1.70
2023-05-03T05:15:27.915Z,6.40
2023-05-03T05:16:27.879Z,4.20
2023-05-03T05:17:27.906Z,3.40
2023-05-03T05:18:27.931Z,3.00
2023-05-03T05:19:28.750Z,2.80
2023-05-03T05:20:27.904Z,2.40
2023-05-03T05:21:27.774Z,2.30
2023-05-03T05:22:27.766Z,2.30
2023-05-03T05:23:27.748Z,2.40
2023-05-03T05:24:28.698Z,2.80
2023-05-03T05:25:27.820Z,2.40
2023-05-03T05:26:27.741Z,2.50
2023-05-03T05:27:27.757Z,2.30
2023-05-03T05:28:27.756Z,2.20
2023-05-03T05:29:28.636Z,2.70
2023-05-03T05:30:27.849Z,2.80
2023-05-03T05:31:27.697Z,2.60
2023-05-03T05:32:27.621Z,2.10
2023-05-03T05:33:27.677Z,2.50
2023-05-03T05:34:27.659Z,2.00
2023-05-03T05:35:28.532Z,4.10
2023-05-03T05:36:27.583Z,3.50
2023-05-03T05:37:27.571Z,2.00
2023-05-03T05:38:27.569Z,2.30
2023-05-03T05:39:27.654Z,2.50
2023-05-03T05:40:27.529Z,1.90
2023-05-03T05:41:28.469Z,2.40
2023-05-03T05:42:27.529Z,2.40
2023-05-03T05:43:27.499Z,2.20
2023-05-03T05:44:27.536Z,2.40
2023-05-03T05:45:27.466Z,2.10
2023-05-03T05:46:27.528Z,2.00
2023-05-03T05:47:28.406Z,2.50
2023-05-03T05:48:27.441Z,1.80
2023-05-03T05:49:27.475Z,2.50
2023-05-03T05:50:27.440Z,2.20
2023-05-03T05:51:27.405Z,1.80
2023-05-03T05:52:28.296Z,1.80
2023-05-03T05:53:27.376Z,2.00
2023-05-03T05:54:28.634Z,2.00
2023-05-03T05:55:27.355Z,2.90
2023-05-03T05:56:27.376Z,2.10
2023-05-03T05:57:28.224Z,2.10
2023-05-03T05:58:27.278Z,1.80
2023-05-03T05:59:27.303Z,1.90
2023-05-03T06:00:27.339Z,1.90
2023-05-03T06:01:27.270Z,2.30
2023-05-03T06:02:28.319Z,2.20
2023-05-03T06:03:27.290Z,1.90
2023-05-03T06:04:27.267Z,2.50
2023-05-03T06:05:27.240Z,1.50
2023-05-03T06:06:27.254Z,2.10
2023-05-03T06:07:27.264Z,1.80
2023-05-03T06:08:28.107Z,1.60
2023-05-03T06:09:27.159Z,1.90
2023-05-03T06:10:27.179Z,1.90
2023-05-03T06:11:27.121Z,2.20
2023-05-03T06:12:27.097Z,2.10
2023-05-03T06:13:28.048Z,2.30
2023-05-03T06:14:27.117Z,2.30
2023-05-03T06:15:27.077Z,1.80
2023-05-03T06:16:27.073Z,1.90
2023-05-03T06:17:27.142Z,2.70
2023-05-03T06:18:27.967Z,1.90
2023-05-03T06:19:27.048Z,2.70
2023-05-03T06:20:26.971Z,1.70
2023-05-03T06:21:26.989Z,1.90
2023-05-03T06:22:26.969Z,2.20
2023-05-03T06:23:27.003Z,1.90
2023-05-03T06:24:27.901Z,1.90
2023-05-03T06:25:26.941Z,2.10
2023-05-03T06:26:26.919Z,1.50
2023-05-03T06:27:26.922Z,1.90
2023-05-03T06:28:26.980Z,1.80
2023-05-03T06:29:28.874Z,1.90
2023-05-03T06:30:26.935Z,2.20
2023-05-03T06:31:27.936Z,2.30
2023-05-03T06:32:26.912Z,1.90
2023-05-03T06:33:26.822Z,1.70
2023-05-03T06:34:26.816Z,1.60
2023-05-03T06:35:27.779Z,2.10
2023-05-03T06:36:26.836Z,2.30
2023-05-03T06:37:26.785Z,1.50
2023-05-03T06:38:26.777Z,1.70
2023-05-03T06:39:26.780Z,2.60
2023-05-03T06:40:26.738Z,2.50
2023-05-03T06:41:27.663Z,2.10
2023-05-03T06:42:26.762Z,2.50
2023-05-03T06:43:26.739Z,1.50
2023-05-03T06:44:26.758Z,2.20
2023-05-03T06:45:26.694Z,1.60
2023-05-03T06:46:27.617Z,1.50
2023-05-03T06:48:24.344Z,2.30
2023-05-03T06:49:24.249Z,1.70
2023-05-03T06:50:24.315Z,2.10
2023-05-03T06:51:25.205Z,2.10
2023-05-03T06:52:24.234Z,2.00
2023-05-03T06:53:24.153Z,2.20
2023-05-03T06:54:24.241Z,2.00
2023-05-03T06:55:24.251Z,1.60
2023-05-03T06:56:24.265Z,1.80
2023-05-03T06:57:26.053Z,2.40
2023-05-03T06:58:24.175Z,2.10
2023-05-03T06:59:24.226Z,1.90
2023-05-03T07:00:24.162Z,2.00
2023-05-03T07:01:24.241Z,1.80
2023-05-03T07:02:24.216Z,2.10
2023-05-03T07:03:25.218Z,1.80
2023-05-03T07:04:24.351Z,2.00
2023-05-03T07:05:24.261Z,2.40
2023-05-03T07:06:24.327Z,2.20
2023-05-03T07:07:24.524Z,2.40
2023-05-03T07:08:24.949Z,2.00
2023-05-03T07:09:41.525Z,2.40
2023-05-03T07:10:25.667Z,2.30
2023-05-03T07:11:24.094Z,2.00
2023-05-03T07:12:24.101Z,1.40
2023-05-03T07:13:23.929Z,1.50
2023-05-03T07:14:24.854Z,1.90
2023-05-03T07:15:24.040Z,1.30
2023-05-03T07:16:23.896Z,1.80
2023-05-03T07:17:24.021Z,1.80
2023-05-03T07:18:24.035Z,1.30
2023-05-03T07:19:23.880Z,1.60
2023-05-03T07:20:24.866Z,2.10
2023-05-03T07:21:23.827Z,2.50
2023-05-03T07:22:23.972Z,2.00
2023-05-03T07:23:23.782Z,1.70
2023-05-03T07:24:23.873Z,1.80
2023-05-03T07:25:24.828Z,2.20
2023-05-03T07:26:23.831Z,1.60
2023-05-03T07:27:24.548Z,1.50
2023-05-03T07:28:23.814Z,1.40
2023-05-03T07:29:23.717Z,1.60
2023-05-03T07:30:24.709Z,1.80
2023-05-03T07:31:23.700Z,1.60
2023-05-03T07:32:23.845Z,1.80
2023-05-03T07:33:23.717Z,1.70
2023-05-03T07:34:23.641Z,1.70
2023-05-03T07:35:23.746Z,2.00
2023-05-03T07:36:30.027Z,2.00
2023-05-03T07:37:23.647Z,1.80
2023-05-03T07:38:23.606Z,1.70
2023-05-03T07:39:23.820Z,1.80
2023-05-03T07:40:23.594Z,1.50
2023-05-03T07:41:23.596Z,1.80
2023-05-03T07:42:24.523Z,1.80
2023-05-03T07:43:23.605Z,1.60
2023-05-03T07:44:23.570Z,1.70
2023-05-03T07:45:23.581Z,1.40
2023-05-03T07:46:23.634Z,1.70
2023-05-03T07:47:24.400Z,1.60
2023-05-03T07:48:23.588Z,1.20
2023-05-03T07:49:23.568Z,2.00
2023-05-03T07:50:23.615Z,2.00
2023-05-03T07:51:23.450Z,1.40
2023-05-03T07:52:23.512Z,1.90
2023-05-03T07:53:29.789Z,1.80
2023-05-03T07:54:23.387Z,1.90
2023-05-03T07:55:23.345Z,1.60
2023-05-03T07:56:23.360Z,1.50
2023-05-03T07:57:23.630Z,1.50
2023-05-03T07:58:35.083Z,2.30
2023-05-03T07:59:25.766Z,1.90
2023-05-03T08:00:23.507Z,1.40
2023-05-03T08:01:23.348Z,1.60
2023-05-03T08:02:23.534Z,1.90
2023-05-03T08:03:23.490Z,2.00
2023-05-03T08:04:25.305Z,1.50
2023-05-03T08:05:23.371Z,1.50
2023-05-03T08:06:23.407Z,1.60
2023-05-03T08:07:23.428Z,1.60
2023-05-03T08:08:23.227Z,1.20
2023-05-03T08:09:23.200Z,1.20
2023-05-03T08:10:24.256Z,1.60
2023-05-03T08:11:23.274Z,1.50
2023-05-03T08:12:23.247Z,1.50
2023-05-03T08:13:23.174Z,1.80
2023-05-03T08:14:23.162Z,1.10
2023-05-03T08:15:23.317Z,1.30
2023-05-03T08:16:24.179Z,1.20
2023-05-03T08:17:23.299Z,1.10
2023-05-03T08:18:23.924Z,1.40
2023-05-03T08:19:23.097Z,1.30
2023-05-03T08:20:23.109Z,1.20
2023-05-03T08:21:24.315Z,1.60
2023-05-03T08:22:23.056Z,1.50
2023-05-03T08:23:23.033Z,1.40
2023-05-03T08:24:23.123Z,1.40
2023-05-03T08:25:23.005Z,2.20
2023-05-03T08:26:24.581Z,1.30
2023-05-03T08:27:23.005Z,1.30
2023-05-03T08:28:22.956Z,1.40
2023-05-03T08:29:23.074Z,1.70
2023-05-03T08:30:23.067Z,1.20
2023-05-03T08:31:24.276Z,1.30
2023-05-03T08:32:22.896Z,1.70
2023-05-03T08:33:22.966Z,1.20
2023-05-03T08:34:23.310Z,1.50
2023-05-03T08:35:23.406Z,1.80
2023-05-03T08:36:23.905Z,1.30
2023-05-03T08:37:23.070Z,1.50
2023-05-03T08:38:23.063Z,1.40
2023-05-03T08:39:22.823Z,1.40
2023-05-03T08:40:22.802Z,1.60
2023-05-03T08:41:23.754Z,1.50
2023-05-03T08:42:25.203Z,1.10
2023-05-03T08:43:22.854Z,1.40
2023-05-03T08:44:23.563Z,1.30
2023-05-03T08:45:22.926Z,1.20
2023-05-03T08:46:23.734Z,1.30
2023-05-03T08:47:22.752Z,1.60
2023-05-03T08:48:22.816Z,1.20
2023-05-03T08:49:22.856Z,1.60
2023-05-03T08:50:22.897Z,1.30
2023-05-03T08:51:22.708Z,1.40
2023-05-03T08:52:23.665Z,1.70
2023-05-03T08:53:22.675Z,1.30
2023-05-03T08:54:22.710Z,1.40
2023-05-03T08:55:22.608Z,1.40
2023-05-03T08:56:22.812Z,1.40
2023-05-03T08:57:23.631Z,1.20
2023-05-03T08:58:22.706Z,1.50
2023-05-03T08:59:22.593Z,0.90
2023-05-03T09:00:22.602Z,1.00
2023-05-03T09:01:22.702Z,0.90
2023-05-03T09:02:23.668Z,1.70
2023-05-03T09:03:24.968Z,1.00
2023-05-03T09:04:22.557Z,1.40
2023-05-03T09:05:22.558Z,1.50
2023-05-03T09:06:22.647Z,1.00
2023-05-03T09:07:22.509Z,1.50
2023-05-03T09:08:23.337Z,1.30
2023-05-03T09:09:22.477Z,1.60
2023-05-03T09:10:22.437Z,1.60
2023-05-03T09:11:22.382Z,1.60
2023-05-03T09:12:22.439Z,1.40
2023-05-03T09:13:22.522Z,1.40
2023-05-03T09:14:23.308Z,1.10
2023-05-03T09:15:22.475Z,1.50
2023-05-03T09:16:22.356Z,1.40
2023-05-03T09:17:22.299Z,1.60
2023-05-03T09:18:22.393Z,1.20
2023-05-03T09:19:22.474Z,1.20
2023-05-03T09:20:23.259Z,1.00
2023-05-03T09:21:22.389Z,1.10
2023-05-03T09:22:22.373Z,1.20
2023-05-03T09:23:22.330Z,1.50
2023-05-03T09:24:22.284Z,1.00
2023-05-03T09:25:22.274Z,1.10
2023-05-03T09:26:23.138Z,1.20
2023-05-03T09:27:22.276Z,1.30
2023-05-03T09:28:22.254Z,2.10
2023-05-03T09:29:22.163Z,1.80
2023-05-03T09:30:22.420Z,1.40
2023-05-03T09:31:23.107Z,0.90
2023-05-03T09:32:22.252Z,1.60
2023-05-03T09:33:22.358Z,1.40
2023-05-03T09:34:22.153Z,1.40
2023-05-03T09:35:22.116Z,1.10
2023-05-03T09:36:22.112Z,1.50
2023-05-03T09:37:23.072Z,1.20
2023-05-03T09:38:22.129Z,1.30
2023-05-03T09:39:22.032Z,1.60
2023-05-03T09:40:22.951Z,1.70
2023-05-03T09:41:22.110Z,1.50
2023-05-03T09:42:22.080Z,1.00
2023-05-03T09:43:22.904Z,1.30
2023-05-03T09:44:21.965Z,1.30
2023-05-03T09:45:22.060Z,1.30
2023-05-03T09:46:22.052Z,1.20
2023-05-03T09:47:21.954Z,1.70
2023-05-03T09:48:21.948Z,1.00
2023-05-03T09:49:22.842Z,1.00
2023-05-03T09:50:21.907Z,1.50
2023-05-03T09:51:21.969Z,1.30
2023-05-03T09:52:21.947Z,1.60
2023-05-03T09:53:22.011Z,2.10
2023-05-03T09:54:22.508Z,1.50
2023-05-03T09:55:22.798Z,1.10
2023-05-03T09:56:21.840Z,1.20
2023-05-03T09:57:21.835Z,1.40
2023-05-03T09:58:21.836Z,1.30
2023-05-03T09:59:22.060Z,1.30
2023-05-03T10:00:23.059Z,2.00
2023-05-03T10:01:21.995Z,1.50
2023-05-03T10:02:21.995Z,1.30
2023-05-03T10:03:21.796Z,1.50
2023-05-03T10:04:21.777Z,1.30
2023-05-03T10:05:28.121Z,1.60
2023-05-03T10:06:21.778Z,1.10
2023-05-03T10:07:22.361Z,1.00
2023-05-03T10:08:21.713Z,1.20
2023-05-03T10:09:21.719Z,1.50
2023-05-03T10:10:21.925Z,1.40
2023-05-03T10:11:22.596Z,1.20
2023-05-03T10:12:21.717Z,1.10
2023-05-03T10:13:21.587Z,1.40
2023-05-03T10:14:21.645Z,1.20
2023-05-03T10:15:21.549Z,1.30
2023-05-03T10:16:21.774Z,1.30
2023-05-03T10:17:27.108Z,1.30
2023-05-03T10:18:23.070Z,1.60
2023-05-03T10:19:21.663Z,1.20
2023-05-03T10:20:21.477Z,1.30
2023-05-03T10:21:22.512Z,1.90
2023-05-03T10:22:21.494Z,1.40
2023-05-03T10:23:22.402Z,1.90
2023-05-03T10:24:21.558Z,1.50
2023-05-03T10:25:21.498Z,1.40
2023-05-03T10:26:21.432Z,1.60
2023-05-03T10:27:21.420Z,1.90
2023-05-03T10:28:23.021Z,1.30
2023-05-03T10:29:21.390Z,1.40
2023-05-03T10:30:21.401Z,1.60
2023-05-03T10:31:21.990Z,1.50
2023-05-03T10:32:21.564Z,1.50
2023-05-03T10:33:21.309Z,1.30
2023-05-03T10:34:22.304Z,1.50
2023-05-03T10:35:21.323Z,1.30
2023-05-03T10:36:21.332Z,1.20
2023-05-03T10:37:21.352Z,1.20
2023-05-03T10:38:21.280Z,1.40
2023-05-03T10:39:22.220Z,1.80
2023-05-03T10:40:21.302Z,1.00
2023-05-03T10:41:21.300Z,1.30
2023-05-03T10:42:21.218Z,1.30
2023-05-03T10:43:21.296Z,1.10
2023-05-03T10:44:22.112Z,1.50
2023-05-03T10:45:21.236Z,1.60
2023-05-03T10:46:21.326Z,1.00
2023-05-03T10:47:21.206Z,1.20
2023-05-03T10:48:21.156Z,1.40
2023-05-03T10:49:22.102Z,1.50
2023-05-03T10:50:21.175Z,1.40
2023-05-03T10:51:21.235Z,1.10
2023-05-03T10:52:21.088Z,1.10
2023-05-03T10:53:21.085Z,1.10
2023-05-03T10:54:21.153Z,1.20
2023-05-03T10:55:22.134Z,1.50
2023-05-03T10:56:21.071Z,1.20
2023-05-03T10:57:21.055Z,1.20
2023-05-03T10:58:21.022Z,1.00
2023-05-03T10:59:21.024Z,1.20
2023-05-03T11:00:21.156Z,1.40
2023-05-03T11:01:21.970Z,1.30
2023-05-03T11:02:21.170Z,1.60
2023-05-03T11:03:20.976Z,1.20
2023-05-03T11:04:21.072Z,1.40
2023-05-03T11:05:20.917Z,1.60
2023-05-03T11:06:21.872Z,1.10
2023-05-03T11:07:20.917Z,1.30
2023-05-03T11:08:21.061Z,1.20
2023-05-03T11:09:20.905Z,1.20
2023-05-03T11:10:21.064Z,0.90
2023-05-03T11:11:21.074Z,1.20
2023-05-03T11:12:21.793Z,0.90
2023-05-03T11:13:21.064Z,0.80
2023-05-03T11:14:20.924Z,1.00
2023-05-03T11:15:20.830Z,1.30
2023-05-03T11:16:20.919Z,1.50
2023-05-03T11:17:20.831Z,1.30
2023-05-03T11:18:21.847Z,1.40
2023-05-03T11:19:20.821Z,1.30
2023-05-03T11:20:20.780Z,1.20
2023-05-03T11:21:20.766Z,1.20
2023-05-03T11:22:20.798Z,1.00
2023-05-03T11:23:21.669Z,1.50
2023-05-03T11:24:20.731Z,1.10
2023-05-03T11:25:20.735Z,1.30
2023-05-03T11:26:20.797Z,1.30
2023-05-03T11:27:20.732Z,1.00
2023-05-03T11:28:21.604Z,1.20
2023-05-03T11:29:20.683Z,1.30
2023-05-03T11:30:20.669Z,1.20
2023-05-03T11:31:20.812Z,1.40
2023-05-03T11:32:20.885Z,0.90
2023-05-03T11:33:20.815Z,0.80
2023-05-03T11:34:21.639Z,1.00
2023-05-03T11:35:20.679Z,1.10
2023-05-03T11:36:20.613Z,1.20
2023-05-03T11:37:20.601Z,1.00
2023-05-03T11:38:20.603Z,1.00
2023-05-03T11:39:21.572Z,1.00
2023-05-03T11:40:20.620Z,1.00
2023-05-03T11:41:20.562Z,1.40
2023-05-03T11:42:20.600Z,1.00
2023-05-03T11:43:20.579Z,1.10
2023-05-03T11:44:21.608Z,1.20
2023-05-03T11:45:22.184Z,1.20
2023-05-03T11:46:20.617Z,1.10
2023-05-03T11:47:26.858Z,1.20
2023-05-03T11:48:20.629Z,1.00
2023-05-03T11:49:21.498Z,0.90
2023-05-03T11:50:20.520Z,1.10
2023-05-03T11:51:20.485Z,0.90
2023-05-03T11:52:20.447Z,1.40
2023-05-03T11:53:20.619Z,1.30
2023-05-03T11:54:26.276Z,1.10
2023-05-03T11:55:22.064Z,1.30
2023-05-03T11:56:20.423Z,1.50
2023-05-03T11:57:20.476Z,1.20
2023-05-03T11:58:20.375Z,0.70
2023-05-03T11:59:20.434Z,1.30
2023-05-03T12:00:21.509Z,0.80
2023-05-03T12:01:21.050Z,1.00
2023-05-03T12:02:20.431Z,1.20
2023-05-03T12:03:20.674Z,1.00
2023-05-03T12:04:20.723Z,1.60
2023-05-03T12:05:20.955Z,1.00
2023-05-03T12:06:21.983Z,0.90
2023-05-03T12:07:22.791Z,1.10
2023-05-03T12:08:21.180Z,0.90
2023-05-03T12:09:22.291Z,0.90
2023-05-03T12:10:24.001Z,0.80
2023-05-03T12:11:22.819Z,1.50
2023-05-03T12:12:26.245Z,1.00
2023-05-03T12:13:22.402Z,0.80
2023-05-03T12:14:20.612Z,1.10
2023-05-03T12:15:21.573Z,1.50
2023-05-03T12:16:20.363Z,0.90
2023-05-03T12:17:20.382Z,1.20
2023-05-03T12:18:21.333Z,1.10
2023-05-03T12:19:23.085Z,1.70
2023-05-03T12:22:25.712Z,0.90
2023-05-03T12:23:22.301Z,1.10
2023-05-03T12:24:21.251Z,1.00
2023-05-03T12:25:20.908Z,0.90
2023-05-03T12:26:20.292Z,1.20
2023-05-03T12:27:21.168Z,1.00
2023-05-03T12:28:21.424Z,1.10
2023-05-03T12:29:23.045Z,0.80
2023-05-03T12:30:21.924Z,1.30
2023-05-03T12:31:22.613Z,0.90
2023-05-03T12:33:22.208Z,1.20
2023-05-03T12:34:33.596Z,1.00
2023-05-03T12:35:23.079Z,1.10
2023-05-03T12:36:21.381Z,0.90
2023-05-03T12:37:22.212Z,0.90
2023-05-03T12:38:23.335Z,0.90
2023-05-03T12:39:21.919Z,0.90
2023-05-03T12:40:33.388Z,0.70
2023-05-03T12:41:42.508Z,1.10
2023-05-03T12:42:22.251Z,1.00
2023-05-03T12:43:20.115Z,0.80
2023-05-03T12:44:23.224Z,1.20
2023-05-03T12:45:21.567Z,1.40
2023-05-03T12:46:33.846Z,1.30
2023-05-03T12:48:20.141Z,2.30
2023-05-03T12:49:22.893Z,1.60
2023-05-03T12:50:24.366Z,0.90
2023-05-03T12:51:22.729Z,1.10
2023-05-03T12:52:37.101Z,0.80
2023-05-03T12:54:20.098Z,1.20
2023-05-03T12:55:24.660Z,2.80
2023-05-03T12:56:24.492Z,1.50
2023-05-03T12:57:23.242Z,1.00
2023-05-03T12:59:40.323Z,1.00
2023-05-03T13:00:25.070Z,1.10
2023-05-03T13:03:20.115Z,1.00
2023-05-03T13:03:22.347Z,2.30
2023-05-03T13:04:41.033Z,1.30
2023-05-03T13:05:33.577Z,1.30
2023-05-03T13:06:21.518Z,1.40
2023-05-03T13:07:27.540Z,1.20
2023-05-03T13:08:21.756Z,1.20
2023-05-03T13:09:21.122Z,1.10
2023-05-03T13:11:20.047Z,1.00
2023-05-03T13:12:20.128Z,1.00
2023-05-03T13:13:19.777Z,0.90
2023-05-03T13:14:19.702Z,1.10
2023-05-03T13:15:20.718Z,1.10
2023-05-03T13:16:20.506Z,0.90
2023-05-03T13:17:19.680Z,0.90
2023-05-03T13:18:19.807Z,1.20
2023-05-03T13:19:19.698Z,1.30
2023-05-03T13:20:19.686Z,1.20
2023-05-03T13:21:20.607Z,1.20
2023-05-03T13:22:19.769Z,1.50
2023-05-03T13:23:19.696Z,1.40
2023-05-03T13:24:19.656Z,1.40
2023-05-03T13:25:19.619Z,1.00
2023-05-03T13:26:19.659Z,1.20
2023-05-03T13:27:20.568Z,1.50